Time;durP1;ratioP1;P1;durP2;ratioP2;P2;SDS_P1;SDS_P2;PMS_P1;PMS_P2;Temp;Humidity;BMP_temperature;BMP_pressure;BME280_temperature;BME280_humidity;BME280_pressure;Samples;Min_cycle;Max_cycle;Signal;HPM_P1;HPM_P2
2022/04/15 00:01:27;;;;;;;8.40;4.88;;;15.80;56.20;;;;;;4976592;28;20039;-96
2022/04/15 00:03:58;;;;;;;5.50;3.78;;;15.80;56.40;;;;;;4958953;28;20551;-95
2022/04/15 00:06:24;;;;;;;5.68;3.70;;;15.80;57.10;;;;;;4980647;28;20038;-96
2022/04/15 00:08:54;;;;;;;7.68;4.13;;;15.80;56.20;;;;;;4963648;28;20057;-95
2022/04/15 00:11:19;;;;;;;6.75;4.07;;;15.80;56.80;;;;;;4964209;28;20034;-96
2022/04/15 00:13:55;;;;;;;6.00;3.67;;;15.80;57.10;;;;;;4965613;28;20053;-96
2022/04/15 00:16:25;;;;;;;6.68;4.22;;;15.80;57.20;;;;;;4965044;28;20503;-96
2022/04/15 00:19:01;;;;;;;6.40;4.07;;;15.80;56.20;;;;;;4967411;28;20051;-95
2022/04/15 00:21:30;;;;;;;8.68;5.10;;;15.80;56.40;;;;;;4983864;28;20122;-96
2022/04/15 00:23:57;;;;;;;6.35;4.88;;;15.70;55.70;;;;;;4982085;28;20066;-95
2022/04/15 00:26:23;;;;;;;12.55;6.32;;;15.50;56.00;;;;;;4966570;28;20054;-96
2022/04/15 00:28:52;;;;;;;12.82;5.72;;;15.40;55.70;;;;;;4965719;28;20045;-96
2022/04/15 00:31:20;;;;;;;13.90;5.97;;;15.20;56.70;;;;;;4966461;28;20514;-96
2022/04/15 00:33:55;;;;;;;14.00;6.10;;;15.00;57.60;;;;;;4965293;28;20495;-96
2022/04/15 00:36:21;;;;;;;10.75;5.32;;;14.80;58.10;;;;;;4980232;28;20039;-95
2022/04/15 00:38:52;;;;;;;7.28;3.83;;;14.70;58.80;;;;;;4982132;28;20086;-95
2022/04/15 00:41:18;;;;;;;10.80;4.38;;;14.80;59.90;;;;;;4963805;28;20101;-95
2022/04/15 00:43:43;;;;;;;10.07;4.35;;;15.00;60.00;;;;;;4978548;28;20043;-96
2022/04/15 00:46:10;;;;;;;7.60;4.90;;;15.10;59.70;;;;;;4978409;28;20102;-96
2022/04/15 00:48:36;;;;;;;12.85;4.63;;;15.20;60.10;;;;;;4961551;28;20049;-96
2022/04/15 00:51:03;;;;;;;7.90;4.65;;;15.20;60.00;;;;;;4977623;28;20038;-96
2022/04/15 00:53:35;;;;;;;11.07;4.72;;;15.10;59.70;;;;;;4974327;28;20114;-96
2022/04/15 00:56:03;;;;;;;11.27;4.88;;;15.00;60.10;;;;;;4975631;28;20062;-95
2022/04/15 00:58:31;;;;;;;8.43;4.53;;;15.10;61.10;;;;;;4977414;28;20045;-96
2022/04/15 01:01:00;;;;;;;9.93;4.25;;;15.10;61.20;;;;;;4957317;28;20034;-95
2022/04/15 01:03:27;;;;;;;9.23;4.17;;;15.10;59.90;;;;;;4961019;28;20391;-96
2022/04/15 01:09:27;;;;;;;9.43;4.55;;;15.10;61.20;;;;;;4978996;28;20069;-96
2022/04/15 01:14:51;;;;;;;9.23;5.03;;;15.00;60.30;;;;;;4975234;28;20070;-96
2022/04/15 01:17:19;;;;;;;8.32;4.68;;;14.80;61.90;;;;;;4977423;28;20026;-96
2022/04/15 01:19:45;;;;;;;11.82;4.28;;;14.70;61.80;;;;;;4978474;28;20471;-96
2022/04/15 01:22:17;;;;;;;7.97;4.60;;;14.80;63.00;;;;;;4980724;28;20027;-96
2022/04/15 01:25:07;;;;;;;10.40;5.15;;;14.80;61.20;;;;;;4957230;28;20503;-96
2022/04/15 01:30:21;;;;;;;9.60;5.13;;;14.80;62.60;;;;;;4978211;28;20328;-96
2022/04/15 01:32:48;;;;;;;13.52;4.57;;;14.80;63.20;;;;;;4962259;28;20035;-95
2022/04/15 01:35:16;;;;;;;13.07;4.20;;;14.90;62.70;;;;;;4980627;28;20391;-96
2022/04/15 01:37:44;;;;;;;10.63;4.55;;;14.90;63.10;;;;;;4981572;28;20043;-95
2022/04/15 01:40:14;;;;;;;10.93;5.10;;;14.80;62.80;;;;;;4980934;28;20047;-95
2022/04/15 01:42:41;;;;;;;;;;;14.90;63.20;;;;;;4977846;28;20034;-96
2022/04/15 01:45:09;;;;;;;11.68;4.93;;;14.80;63.00;;;;;;4978645;28;19964;-96
2022/04/15 01:47:42;;;;;;;11.50;5.22;;;14.80;63.30;;;;;;4979314;28;20442;-94
2022/04/15 01:50:10;;;;;;;8.68;4.40;;;14.70;63.40;;;;;;4980171;28;20062;-95
2022/04/15 01:52:36;;;;;;;11.55;6.80;;;14.70;63.60;;;;;;4962135;28;20058;-96
2022/04/15 01:55:03;;;;;;;9.80;5.93;;;14.60;64.30;;;;;;4961302;28;20062;-96
2022/04/15 01:57:29;;;;;;;13.32;6.15;;;14.50;64.30;;;;;;4978611;28;20026;-94
2022/04/15 01:59:54;;;;;;;11.30;5.85;;;14.50;65.10;;;;;;4978221;28;20027;-94
2022/04/15 02:02:20;;;;;;;13.95;6.63;;;14.40;65.20;;;;;;4975008;28;20098;-95
2022/04/15 02:04:46;;;;;;;8.68;6.15;;;14.20;65.40;;;;;;4978049;28;20038;-95
2022/04/15 02:07:12;;;;;;;9.35;6.38;;;14.20;65.90;;;;;;4961143;28;20050;-95
2022/04/15 02:09:38;;;;;;;7.88;5.40;;;14.20;65.20;;;;;;4977858;28;20035;-95
2022/04/15 02:12:04;;;;;;;11.93;5.75;;;14.30;65.80;;;;;;4960896;28;20507;-95
2022/04/15 02:14:30;;;;;;;9.38;6.38;;;14.30;66.40;;;;;;4961380;28;20131;-95
2022/04/15 02:17:07;;;;;;;11.40;5.57;;;14.30;65.50;;;;;;4978466;28;20507;-93
2022/04/15 02:19:45;;;;;;;10.45;5.63;;;14.30;66.00;;;;;;4977831;28;20106;-96
2022/04/15 02:22:11;;;;;;;12.35;6.07;;;14.40;66.50;;;;;;4958024;28;20042;-95
2022/04/15 02:24:36;;;;;;;8.55;5.57;;;14.40;66.50;;;;;;4962228;28;20035;-96
2022/04/15 02:27:05;;;;;;;8.75;6.10;;;14.40;66.40;;;;;;4977248;28;20043;-96
2022/04/15 02:29:32;;;;;;;9.98;5.90;;;14.40;66.70;;;;;;4958739;28;20085;-96
2022/04/15 02:31:58;;;;;;;9.52;6.30;;;14.40;66.30;;;;;;4958503;28;20066;-96
2022/04/15 02:34:29;;;;;;;12.13;6.20;;;14.40;66.40;;;;;;4978039;28;20045;-96
2022/04/15 02:37:42;;;;;;;10.32;5.82;;;14.30;66.20;;;;;;4961231;28;20046;-96
2022/04/15 02:40:08;;;;;;;11.80;5.82;;;14.40;66.10;;;;;;4974221;28;20120;-94
2022/04/15 02:42:34;;;;;;;8.60;5.68;;;14.30;66.60;;;;;;4973967;28;20070;-95
2022/04/15 02:45:01;;;;;;;9.88;5.90;;;14.30;66.80;;;;;;4975814;28;20039;-96
2022/04/15 02:47:28;;;;;;;7.88;5.70;;;14.30;66.10;;;;;;4974939;28;20053;-96
2022/04/15 02:49:54;;;;;;;10.30;6.13;;;14.30;65.90;;;;;;4958711;28;20031;-95
2022/04/15 02:52:21;;;;;;;9.23;6.18;;;14.30;66.50;;;;;;4974826;28;20578;-96
2022/04/15 02:54:54;;;;;;;9.07;5.70;;;14.30;66.60;;;;;;4975403;28;20096;-95
2022/04/15 02:57:22;;;;;;;14.35;5.57;;;14.20;66.50;;;;;;4974515;28;20058;-96
2022/04/15 02:59:51;;;;;;;8.93;5.80;;;14.30;66.70;;;;;;4958221;28;20070;-95
2022/04/15 03:02:17;;;;;;;7.95;5.90;;;14.30;66.60;;;;;;4973966;28;20117;-96
2022/04/15 03:04:45;;;;;;;9.45;5.65;;;14.30;66.80;;;;;;4975323;28;20106;-96
2022/04/15 03:07:14;;;;;;;14.45;6.53;;;14.20;66.70;;;;;;4974784;28;20089;-95
2022/04/15 03:09:39;;;;;;;9.88;6.28;;;14.20;66.90;;;;;;4972920;28;20043;-96
2022/04/15 03:12:14;;;;;;;8.95;6.13;;;14.20;67.50;;;;;;4974373;28;20115;-95
2022/04/15 03:15:00;;;;;;;8.77;5.85;;;14.20;68.10;;;;;;4976820;28;20077;-95
2022/04/15 03:17:34;;;;;;;10.93;5.75;;;14.10;67.60;;;;;;4975576;28;20443;-94
2022/04/15 03:20:02;;;;;;;9.32;5.70;;;14.20;67.80;;;;;;4976852;28;20022;-95
2022/04/15 03:22:39;;;;;;;9.75;6.28;;;14.10;68.10;;;;;;4960272;28;20069;-96
2022/04/15 03:25:06;;;;;;;8.57;6.03;;;14.10;68.10;;;;;;4960289;28;20030;-95
2022/04/15 03:27:32;;;;;;;10.60;7.53;;;14.10;67.30;;;;;;4977351;28;20115;-96
2022/04/15 03:29:58;;;;;;;12.48;7.22;;;14.00;67.70;;;;;;4975804;28;20034;-95
2022/04/15 03:32:30;;;;;;;13.60;7.00;;;14.00;68.50;;;;;;4977019;28;20061;-95
2022/04/15 03:37:52;;;;;;;9.75;7.13;;;14.00;68.10;;;;;;4979137;28;20049;-92
2022/04/15 03:43:09;;;;;;;14.82;6.97;;;14.00;68.80;;;;;;4981383;28;20082;-95
2022/04/15 12:21:07;;;;;;;1.90;1.20;;;32.00;25.30;;;;;;1967529;23;20040;-83
2022/04/15 12:26:09;;;;;;;3.08;1.42;;;32.40;25.40;;;;;;5148672;27;20321;-83
2022/04/15 12:31:31;;;;;;;3.80;1.30;;;32.50;25.20;;;;;;5144760;27;20501;-80
2022/04/15 12:34:04;;;;;;;3.92;1.50;;;32.50;24.70;;;;;;5156673;27;20045;-79
2022/04/15 12:36:44;;;;;;;3.50;1.08;;;32.40;24.30;;;;;;5156424;27;20015;-80
2022/04/15 12:39:10;;;;;;;3.58;1.30;;;32.50;24.70;;;;;;5149981;27;20488;-80
2022/04/15 12:41:46;;;;;;;1.65;1.40;;;32.70;24.40;;;;;;5155329;27;20018;-81
2022/04/15 12:44:31;;;;;;;2.80;1.50;;;33.00;24.50;;;;;;5153312;27;20035;-80
2022/04/15 12:47:00;;;;;;;2.13;1.48;;;33.10;24.60;;;;;;5150218;27;20022;-81
2022/04/15 12:49:36;;;;;;;1.63;1.13;;;33.20;24.20;;;;;;5148103;27;20027;-82
2022/04/15 12:52:11;;;;;;;198.35;179.13;;;33.30;24.30;;;;;;5155492;27;20045;-81
2022/04/15 12:55:05;;;;;;;27.27;19.10;;;33.50;24.10;;;;;;5149744;27;20102;-83
2022/04/15 12:57:37;;;;;;;2.08;1.70;;;33.60;23.90;;;;;;5148321;27;20362;-82
2022/04/15 13:00:10;;;;;;;0.90;0.90;;;33.80;23.50;;;;;;5151277;27;20092;-87
2022/04/15 13:02:37;;;;;;;3.05;1.30;;;33.80;23.30;;;;;;5130748;27;20018;-87
2022/04/15 13:05:06;;;;;;;1.33;1.20;;;34.00;23.50;;;;;;5149562;27;20019;-85
2022/04/15 13:07:34;;;;;;;3.10;1.27;;;33.80;23.10;;;;;;5130111;27;20025;-85
2022/04/15 13:10:01;;;;;;;2.70;1.10;;;33.60;23.70;;;;;;5131507;27;20031;-82
2022/04/15 13:12:27;;;;;;;2.38;1.35;;;33.60;23.60;;;;;;5149407;27;20044;-82
2022/04/15 13:14:53;;;;;;;2.08;1.30;;;33.50;23.70;;;;;;5130895;27;20023;-82
2022/04/15 13:17:19;;;;;;;1.63;0.98;;;33.30;24.00;;;;;;5130825;27;20031;-83
2022/04/15 13:19:47;;;;;;;1.67;1.02;;;33.00;24.30;;;;;;5149309;27;20419;-86
2022/04/15 13:22:18;;;;;;;2.40;1.40;;;32.70;24.00;;;;;;5149294;27;20023;-85
2022/04/15 13:24:45;;;;;;;1.85;1.05;;;32.40;24.30;;;;;;5130609;27;20409;-85
2022/04/15 13:27:11;;;;;;;2.55;1.27;;;31.90;24.90;;;;;;5149474;27;20047;-85
2022/04/15 13:29:38;;;;;;;1.45;1.13;;;31.50;24.00;;;;;;5130055;27;20054;-85
2022/04/15 13:32:06;;;;;;;1.50;0.80;;;30.90;24.20;;;;;;5148877;27;20058;-85
2022/04/15 13:34:33;;;;;;;1.20;0.98;;;30.50;23.80;;;;;;5148948;27;20467;-85
2022/04/15 13:37:03;;;;;;;1.40;0.80;;;30.10;23.60;;;;;;5138393;27;20031;-83
2022/04/15 13:39:30;;;;;;;1.83;1.00;;;29.70;24.00;;;;;;5138837;27;20030;-82
2022/04/15 13:41:58;;;;;;;2.35;0.90;;;29.40;24.60;;;;;;5134862;27;20149;-83
2022/04/15 13:44:24;;;;;;;2.05;0.85;;;28.90;25.30;;;;;;5134686;27;20653;-83
2022/04/15 13:46:49;;;;;;;2.50;1.35;;;28.60;25.90;;;;;;5135193;27;20016;-81
2022/04/15 13:49:15;;;;;;;1.95;1.10;;;28.30;26.20;;;;;;5135863;27;20023;-82
2022/04/15 13:51:41;;;;;;;2.72;1.40;;;28.00;27.70;;;;;;5136067;27;20030;-82
2022/04/15 13:56:52;;;;;;;4.50;1.20;;;27.30;27.60;;;;;;5132807;27;20099;-85
2022/04/15 13:59:18;;;;;;;1.95;1.10;;;27.10;27.50;;;;;;5135814;27;20110;-83
2022/04/15 14:01:44;;;;;;;2.45;0.90;;;26.90;27.10;;;;;;5115891;27;20110;-85
2022/04/15 14:04:12;;;;;;;2.42;1.15;;;26.70;26.90;;;;;;5131549;27;20023;-85
2022/04/15 14:06:46;;;;;;;2.50;0.98;;;26.60;27.20;;;;;;5134555;27;20466;-86
2022/04/15 14:09:14;;;;;;;2.63;0.90;;;26.40;27.80;;;;;;5140832;27;20034;-88
2022/04/15 14:11:43;;;;;;;1.52;0.82;;;26.30;28.10;;;;;;5135092;27;20022;-86
2022/04/15 14:14:10;;;;;;;0.98;0.68;;;26.10;28.30;;;;;;5134264;27;20026;-86
2022/04/15 14:16:36;;;;;;;4.82;1.25;;;26.00;28.50;;;;;;5116435;27;20366;-85
2022/04/15 14:19:02;;;;;;;1.38;0.70;;;25.90;28.60;;;;;;5134785;27;20050;-85
2022/04/15 14:21:29;;;;;;;1.20;0.70;;;25.70;28.50;;;;;;5133890;27;20023;-82
2022/04/15 14:23:55;;;;;;;1.70;0.80;;;25.50;28.70;;;;;;5133212;27;20038;-83
2022/04/15 14:26:21;;;;;;;2.75;0.98;;;25.40;28.80;;;;;;5133489;27;20084;-83
2022/04/15 14:28:47;;;;;;;2.10;0.90;;;25.30;28.80;;;;;;5116446;27;20023;-82
2022/04/15 14:31:13;;;;;;;1.40;0.77;;;25.20;28.60;;;;;;5134143;27;20094;-82
2022/04/15 14:33:39;;;;;;;1.50;0.90;;;25.10;28.40;;;;;;5134061;27;20106;-82
2022/04/15 14:36:05;;;;;;;1.85;0.75;;;24.90;28.80;;;;;;5133657;27;20022;-83
2022/04/15 14:38:36;;;;;;;1.05;0.70;;;24.80;29.20;;;;;;5131323;27;20079;-82
2022/04/15 14:41:04;;;;;;;1.15;0.70;;;24.70;29.60;;;;;;5137260;27;20505;-83
2022/04/15 14:43:40;;;;;;;1.60;0.80;;;24.60;30.00;;;;;;5133733;27;20021;-84
2022/04/15 14:46:10;;;;;;;3.70;1.05;;;24.60;29.90;;;;;;5133894;27;20031;-84
2022/04/15 14:48:38;;;;;;;0.80;0.70;;;24.50;29.60;;;;;;5132815;27;20076;-87
2022/04/15 14:51:04;;;;;;;1.30;0.68;;;24.40;29.30;;;;;;5135480;27;20152;-88
2022/04/15 14:53:34;;;;;;;1.00;0.85;;;24.30;29.50;;;;;;5133900;27;20530;-85
2022/04/15 14:56:00;;;;;;;;;;;24.20;28.60;;;;;;5134230;27;20030;-85
2022/04/15 14:58:26;;;;;;;2.38;0.60;;;24.20;28.00;;;;;;5133557;27;19943;-85
2022/04/15 15:00:53;;;;;;;1.98;0.95;;;24.10;28.20;;;;;;5115267;27;20347;-81
2022/04/15 15:03:19;;;;;;;1.73;0.82;;;24.10;28.20;;;;;;5134674;27;20513;-82
2022/04/15 15:05:46;;;;;;;1.88;0.98;;;24.00;28.30;;;;;;5114736;27;20379;-81
2022/04/15 15:08:12;;;;;;;2.90;1.08;;;23.90;28.50;;;;;;5133510;27;20027;-81
2022/04/15 15:10:38;;;;;;;3.85;1.17;;;23.90;28.50;;;;;;5115379;27;20019;-81
2022/04/15 15:13:04;;;;;;;1.60;1.15;;;23.80;28.30;;;;;;5131415;27;20030;-82
2022/04/15 15:15:29;;;;;;;1.38;1.00;;;23.80;28.30;;;;;;5127897;27;20454;-82
2022/04/15 15:17:55;;;;;;;2.25;1.05;;;23.80;28.20;;;;;;5115313;27;20027;-80
2022/04/15 15:20:57;;;;;;;2.75;1.00;;;23.70;28.00;;;;;;5131733;27;20034;-80
2022/04/15 15:23:23;;;;;;;3.05;1.40;;;23.70;27.80;;;;;;5130574;27;20143;-80
2022/04/15 15:31:21;;;;;;;2.67;1.35;;;23.60;28.40;;;;;;5105967;27;20089;-81
2022/04/15 15:33:47;;;;;;;2.20;1.20;;;23.50;28.50;;;;;;5124860;27;20451;-81
2022/04/15 15:36:13;;;;;;;2.17;1.15;;;23.40;28.70;;;;;;5136082;27;20467;-85
2022/04/15 15:38:42;;;;;;;2.10;1.10;;;23.40;28.90;;;;;;5131461;27;20039;-84
2022/04/15 15:41:16;;;;;;;2.33;1.10;;;23.30;29.10;;;;;;5126012;27;20035;-85
2022/04/15 15:43:42;;;;;;;2.63;0.98;;;23.30;29.50;;;;;;5107960;27;20064;-83
2022/04/15 15:46:08;;;;;;;2.80;1.40;;;23.30;29.70;;;;;;5132005;27;20110;-83
2022/04/15 15:48:34;;;;;;;3.55;0.90;;;23.20;29.90;;;;;;5107665;27;20563;-84
2022/04/15 15:51:00;;;;;;;1.58;0.82;;;23.20;30.20;;;;;;5117049;27;20081;-85
2022/04/15 15:53:26;;;;;;;1.25;0.70;;;23.20;30.40;;;;;;5141426;27;20437;-84
2022/04/15 15:55:52;;;;;;;2.15;0.85;;;23.20;30.30;;;;;;5109219;27;20038;-84
2022/04/15 15:58:19;;;;;;;1.92;0.80;;;23.20;30.10;;;;;;5126212;27;20451;-85
2022/04/15 16:00:46;;;;;;;2.25;0.90;;;23.10;30.10;;;;;;5130363;27;20351;-85
2022/04/15 16:03:13;;;;;;;1.48;0.70;;;23.10;30.10;;;;;;5119780;27;20530;-85
2022/04/15 16:05:40;;;;;;;1.77;0.80;;;23.00;30.50;;;;;;5116770;27;20394;-84
2022/04/15 16:08:07;;;;;;;1.95;0.82;;;23.00;30.80;;;;;;5109435;27;20036;-85
2022/04/15 16:10:33;;;;;;;0.68;0.65;;;22.90;30.30;;;;;;5128424;27;20140;-84
2022/04/15 16:12:58;;;;;;;1.55;0.82;;;22.90;30.70;;;;;;5134275;27;20122;-84
2022/04/15 16:15:24;;;;;;;1.27;0.70;;;22.90;30.00;;;;;;5128221;27;20028;-83
2022/04/15 16:17:50;;;;;;;1.38;0.77;;;22.90;29.60;;;;;;5125418;27;20023;-83
2022/04/15 16:20:15;;;;;;;3.28;0.80;;;22.90;29.30;;;;;;5125501;27;20164;-83
2022/04/15 16:22:41;;;;;;;2.45;0.68;;;22.80;29.80;;;;;;5143127;27;20397;-83
2022/04/15 16:25:08;;;;;;;1.52;0.77;;;22.80;29.40;;;;;;5108803;28;20051;-86
2022/04/15 16:27:34;;;;;;;2.05;0.93;;;22.70;29.20;;;;;;5131043;27;20168;-85
2022/04/15 16:30:00;;;;;;;2.67;1.00;;;22.70;29.90;;;;;;5126418;27;20033;-84
2022/04/15 16:32:27;;;;;;;2.38;0.98;;;22.70;30.20;;;;;;5134214;28;20098;-85
2022/04/15 16:34:52;;;;;;;2.45;1.42;;;22.60;30.10;;;;;;5146934;27;20102;-85
2022/04/15 16:37:18;;;;;;;3.35;1.73;;;22.60;30.40;;;;;;5134160;27;20540;-83
2022/04/15 16:39:43;;;;;;;4.18;1.88;;;22.50;30.60;;;;;;5133598;28;20027;-83
2022/04/15 16:42:10;;;;;;;5.60;1.92;;;22.50;30.60;;;;;;5140053;27;20031;-83
2022/04/15 16:44:35;;;;;;;3.75;2.17;;;22.50;30.70;;;;;;5139548;27;20031;-83
2022/04/15 16:47:01;;;;;;;5.95;2.53;;;22.50;30.90;;;;;;5154984;27;20049;-83
2022/04/15 16:49:28;;;;;;;6.38;2.80;;;22.40;31.10;;;;;;5151885;27;20031;-83
2022/04/15 16:51:54;;;;;;;6.63;2.33;;;22.40;31.50;;;;;;5134098;28;20028;-83
2022/04/15 16:58:37;;;;;;;4.43;2.40;;;22.40;32.00;;;;;;5133957;28;20027;-83
2022/04/15 16:59:50;;;;;;;3.38;2.03;;;22.30;33.60;;;;;;5133990;27;20080;-83
2022/04/15 17:02:16;;;;;;;4.68;1.92;;;22.20;33.70;;;;;;5115151;28;20378;-83
2022/04/15 17:04:42;;;;;;;5.07;2.17;;;22.20;34.60;;;;;;5133524;27;20071;-83
2022/04/15 17:07:07;;;;;;;3.85;1.85;;;22.10;34.30;;;;;;5133549;28;20075;-83
2022/04/15 17:10:16;;;;;;;3.53;1.95;;;22.10;34.50;;;;;;5138978;27;20421;-82
2022/04/15 17:12:42;;;;;;;3.70;1.70;;;22.10;34.90;;;;;;5116693;28;20032;-82
2022/04/15 17:15:17;;;;;;;3.28;1.40;;;22.00;34.70;;;;;;5117332;28;20082;-83
2022/04/15 17:17:43;;;;;;;2.78;1.33;;;22.00;34.80;;;;;;5120017;27;20106;-83
2022/04/15 17:20:09;;;;;;;3.17;1.50;;;21.90;34.90;;;;;;5137189;27;20110;-82
2022/04/15 17:22:39;;;;;;;2.67;1.77;;;21.90;35.10;;;;;;5137586;27;20047;-83
2022/04/15 17:25:19;;;;;;;5.03;1.73;;;21.90;35.00;;;;;;5129152;27;20043;-81
2022/04/15 17:27:45;;;;;;;3.97;2.50;;;21.90;35.10;;;;;;5123575;27;20462;-81
2022/04/15 17:30:11;;;;;;;3.20;2.25;;;21.80;35.00;;;;;;5128532;27;20110;-81
2022/04/15 17:32:37;;;;;;;5.18;2.67;;;21.80;35.10;;;;;;5137811;27;20057;-81
2022/04/15 17:35:03;;;;;;;4.85;2.40;;;21.70;35.00;;;;;;5136559;27;20034;-81
2022/04/15 17:37:28;;;;;;;6.03;2.92;;;21.70;35.20;;;;;;5116238;27;20563;-81
2022/04/15 17:39:54;;;;;;;4.57;2.80;;;21.70;35.30;;;;;;5136340;27;20106;-81
2022/04/15 17:42:19;;;;;;;6.05;3.17;;;21.70;35.30;;;;;;5140217;27;20117;-81
2022/04/15 17:44:46;;;;;;;7.85;2.63;;;21.60;35.50;;;;;;5141678;27;20046;-81
2022/04/15 17:47:11;;;;;;;4.07;2.20;;;21.60;35.40;;;;;;5136344;27;20038;-81
2022/04/15 17:49:37;;;;;;;5.22;2.47;;;21.60;35.40;;;;;;5136834;27;20027;-81
2022/04/15 17:52:06;;;;;;;2.70;1.50;;;21.50;35.50;;;;;;5137172;27;20035;-81
2022/04/15 17:54:31;;;;;;;4.32;2.13;;;21.50;35.80;;;;;;5145282;27;20035;-83
2022/04/15 17:56:57;;;;;;;2.92;1.80;;;21.40;36.00;;;;;;5115320;27;20095;-81
2022/04/15 17:59:22;;;;;;;3.50;1.90;;;21.40;36.70;;;;;;5135638;27;20546;-81
2022/04/15 18:01:49;;;;;;;3.00;1.88;;;21.30;37.10;;;;;;5137047;27;20038;-81
2022/04/15 18:04:15;;;;;;;3.08;1.80;;;21.40;37.50;;;;;;5141715;27;20022;-84
2022/04/15 18:06:40;;;;;;;3.47;1.85;;;21.30;37.70;;;;;;5152113;27;20022;-80
2022/04/15 18:09:06;;;;;;;5.53;2.20;;;21.20;37.20;;;;;;5140406;27;20091;-80
2022/04/15 18:11:32;;;;;;;5.13;2.08;;;21.20;37.40;;;;;;5125367;27;20031;-80
2022/04/15 18:13:59;;;;;;;6.70;2.30;;;21.30;37.40;;;;;;5136458;27;20019;-81
2022/04/15 18:16:25;;;;;;;3.67;2.00;;;21.20;37.30;;;;;;5134878;27;20079;-82
2022/04/15 18:18:50;;;;;;;6.25;2.38;;;21.20;37.40;;;;;;5141384;27;20023;-83
2022/04/15 18:21:17;;;;;;;3.50;2.20;;;21.20;37.50;;;;;;5137960;27;20382;-82
2022/04/15 18:23:43;;;;;;;4.32;2.28;;;21.20;37.50;;;;;;5116213;27;20096;-81
2022/04/15 18:26:08;;;;;;;7.38;3.03;;;21.10;37.60;;;;;;5117965;27;20165;-82
2022/04/15 18:28:34;;;;;;;4.95;3.50;;;21.10;37.90;;;;;;5136138;27;20046;-82
2022/04/15 18:31:00;;;;;;;5.63;3.10;;;21.10;38.60;;;;;;5135288;27;20016;-82
2022/04/15 18:33:27;;;;;;;6.13;3.08;;;21.00;38.60;;;;;;5135459;27;20030;-82
2022/04/15 18:35:52;;;;;;;4.22;2.83;;;21.00;38.70;;;;;;5122472;27;20031;-81
2022/04/15 18:38:18;;;;;;;8.05;3.03;;;21.00;38.90;;;;;;5154330;27;20061;-81
2022/04/15 18:40:44;;;;;;;12.70;3.80;;;21.00;39.30;;;;;;5146508;27;20027;-81
2022/04/15 18:43:10;;;;;;;6.97;3.08;;;20.90;40.00;;;;;;5146238;27;20114;-83
2022/04/15 18:45:36;;;;;;;6.70;3.97;;;20.90;41.30;;;;;;5150261;27;20411;-81
2022/04/15 18:53:31;;;;;;;5.50;2.80;;;21.00;44.10;;;;;;5148818;27;20085;-81
2022/04/15 18:55:57;;;;;;;6.10;2.90;;;21.00;43.10;;;;;;5135774;27;20471;-81
2022/04/15 18:58:23;;;;;;;5.88;2.50;;;21.00;43.60;;;;;;5141643;27;20150;-81
2022/04/15 19:00:49;;;;;;;3.10;2.45;;;21.00;44.60;;;;;;5149558;27;20050;-81
2022/04/15 19:03:17;;;;;;;4.70;2.40;;;21.00;45.40;;;;;;5114524;27;20039;-81
2022/04/15 19:05:43;;;;;;;5.10;2.60;;;20.90;45.90;;;;;;5132554;27;20019;-82
2022/04/15 19:08:08;;;;;;;4.80;3.20;;;20.90;46.30;;;;;;5130595;27;20075;-82
2022/04/15 19:10:36;;;;;;;5.63;3.20;;;20.80;46.60;;;;;;5131951;27;20015;-84
2022/04/15 19:13:03;;;;;;;5.00;3.15;;;20.80;46.30;;;;;;5132017;27;20031;-82
2022/04/15 19:15:28;;;;;;;4.05;3.03;;;20.80;46.40;;;;;;5131934;27;20281;-82
2022/04/15 19:17:54;;;;;;;5.10;2.90;;;20.70;47.10;;;;;;5137991;27;20457;-81
2022/04/15 19:20:20;;;;;;;4.22;2.70;;;20.70;47.80;;;;;;5132526;27;20026;-83
2022/04/15 19:22:46;;;;;;;3.50;2.58;;;20.70;47.80;;;;;;5116585;27;20034;-80
2022/04/15 19:25:13;;;;;;;3.63;2.17;;;20.60;48.10;;;;;;5133990;27;20050;-80
2022/04/15 19:27:39;;;;;;;3.25;2.08;;;20.50;48.70;;;;;;5132722;27;20027;-80
2022/04/15 19:30:06;;;;;;;2.97;2.00;;;20.50;49.10;;;;;;5113353;27;20042;-80
2022/04/15 19:32:49;;;;;;;3.95;2.33;;;20.40;49.60;;;;;;5141575;27;20041;-81
2022/04/15 19:35:16;;;;;;;3.70;1.90;;;20.40;50.60;;;;;;5123200;27;20091;-82
2022/04/15 19:37:42;;;;;;;3.45;2.20;;;20.30;50.50;;;;;;5134828;27;20027;-83
2022/04/15 19:40:08;;;;;;;3.42;2.40;;;20.30;51.00;;;;;;5128023;27;20031;-82
2022/04/15 19:42:35;;;;;;;3.30;2.45;;;20.30;51.50;;;;;;5132319;27;20035;-81
2022/04/15 19:45:01;;;;;;;5.60;2.80;;;20.20;52.00;;;;;;5132358;27;20065;-81
2022/04/15 19:47:30;;;;;;;5.38;2.90;;;20.10;52.30;;;;;;5136038;27;20059;-82
2022/04/15 19:49:56;;;;;;;5.30;3.45;;;20.00;52.50;;;;;;5131029;27;20035;-82
2022/04/15 19:52:22;;;;;;;4.20;3.15;;;20.00;52.80;;;;;;5141559;27;20482;-81
2022/04/15 19:54:47;;;;;;;5.15;2.88;;;20.00;53.40;;;;;;5115261;27;20038;-81
2022/04/15 20:02:43;;;;;;;6.57;3.58;;;19.90;54.50;;;;;;5129341;27;20525;-82
2022/04/15 20:05:11;;;;;;;5.57;3.30;;;19.80;54.60;;;;;;5129625;27;20080;-81
2022/04/15 20:07:38;;;;;;;5.88;3.20;;;19.80;55.10;;;;;;5113332;27;20027;-81
2022/04/15 20:10:04;;;;;;;3.88;2.72;;;19.80;55.30;;;;;;5124839;27;20026;-80
2022/04/15 20:12:30;;;;;;;3.13;1.85;;;19.80;55.60;;;;;;5127578;27;20023;-80
2022/04/15 20:14:57;;;;;;;2.10;1.70;;;19.80;55.40;;;;;;5131277;27;20039;-80
2022/04/15 20:17:23;;;;;;;3.35;2.90;;;19.70;55.70;;;;;;5136981;27;20039;-80
2022/04/15 20:19:50;;;;;;;5.68;3.08;;;19.70;56.50;;;;;;5145248;27;20038;-80
2022/04/15 20:22:20;;;;;;;3.72;2.00;;;19.60;57.00;;;;;;5148183;27;20549;-80
2022/04/15 20:24:46;;;;;;;3.28;2.03;;;19.60;57.50;;;;;;5131373;27;20031;-80
2022/04/15 20:27:12;;;;;;;2.17;1.63;;;19.60;58.00;;;;;;5144702;27;20084;-81
2022/04/15 20:29:38;;;;;;;2.38;1.65;;;19.60;59.20;;;;;;5131405;27;20383;-81
2022/04/15 20:32:04;;;;;;;3.78;1.67;;;19.60;58.80;;;;;;5133871;27;20110;-81
2022/04/15 20:34:30;;;;;;;4.90;1.88;;;19.60;59.10;;;;;;5149829;27;20442;-81
2022/04/15 20:36:56;;;;;;;5.70;2.13;;;19.50;59.50;;;;;;5131109;27;20070;-81
2022/04/15 20:39:22;;;;;;;3.50;2.25;;;19.50;59.80;;;;;;5134137;27;20062;-81
2022/04/15 20:41:47;;;;;;;6.07;2.63;;;19.50;60.20;;;;;;5112449;28;20039;-80
2022/04/15 20:44:13;;;;;;;4.05;2.80;;;19.40;60.80;;;;;;5130314;27;20390;-81
2022/04/15 20:46:38;;;;;;;4.22;2.33;;;19.40;61.50;;;;;;5134367;27;20024;-80
2022/04/15 20:51:49;;;;;;;3.42;2.33;;;19.30;61.30;;;;;;5144006;27;20025;-81
2022/04/15 20:54:16;;;;;;;6.75;2.42;;;19.40;61.50;;;;;;5145562;27;20020;-81
2022/04/15 20:56:42;;;;;;;7.85;2.42;;;19.40;62.10;;;;;;5146518;27;20052;-80
2022/04/15 20:59:08;;;;;;;5.28;2.97;;;19.40;62.10;;;;;;5146967;27;20031;-87
2022/04/15 21:01:34;;;;;;;4.75;2.72;;;19.40;62.50;;;;;;5140115;27;20027;-85
2022/04/15 21:04:00;;;;;;;3.95;2.65;;;19.40;62.50;;;;;;5136911;27;20031;-84
2022/04/15 21:06:26;;;;;;;4.45;2.67;;;19.40;62.30;;;;;;5138764;27;20027;-81
2022/04/15 21:08:53;;;;;;;7.40;2.97;;;19.40;62.30;;;;;;5118491;27;20343;-80
2022/04/15 21:11:20;;;;;;;3.83;2.40;;;19.40;62.00;;;;;;5113988;27;20079;-80
2022/04/15 21:13:46;;;;;;;3.38;2.63;;;19.40;61.60;;;;;;5132621;27;20067;-80
2022/04/15 21:16:12;;;;;;;4.38;2.53;;;19.20;60.90;;;;;;5133720;27;20023;-80
2022/04/15 21:18:37;;;;;;;4.45;2.42;;;19.20;61.20;;;;;;5135086;27;20039;-80
2022/04/15 21:21:05;;;;;;;3.58;2.13;;;19.20;61.50;;;;;;5133834;27;20065;-80
2022/04/15 21:23:32;;;;;;;3.97;1.95;;;19.20;61.70;;;;;;5134282;27;20019;-80
2022/04/15 21:25:58;;;;;;;2.58;1.63;;;19.20;62.30;;;;;;5136330;27;20043;-79
2022/04/15 21:28:23;;;;;;;2.80;1.95;;;19.20;63.60;;;;;;5138567;27;20033;-79
2022/04/15 21:30:49;;;;;;;2.67;2.00;;;19.20;63.50;;;;;;5138610;27;20038;-80
2022/04/15 21:33:15;;;;;;;4.70;2.15;;;19.20;65.00;;;;;;5139048;27;20363;-81
2022/04/15 21:35:41;;;;;;;5.32;3.05;;;19.20;66.00;;;;;;5140862;27;20492;-80
2022/04/15 21:38:12;;;;;;;5.18;3.13;;;19.20;66.80;;;;;;5138567;27;20076;-81
2022/04/15 21:40:40;;;;;;;3.25;2.70;;;19.20;67.50;;;;;;5138195;27;20029;-81
2022/04/15 21:43:07;;;;;;;5.32;2.80;;;19.20;68.50;;;;;;5138359;27;20084;-81
2022/04/15 21:45:34;;;;;;;4.15;2.80;;;19.10;68.60;;;;;;5138563;27;20058;-82
2022/04/15 21:47:59;;;;;;;4.03;2.95;;;19.10;69.40;;;;;;5138882;27;20067;-80
2022/04/15 21:52:30;;;;;;;3.85;2.72;;;19.10;70.40;;;;;;5141424;27;20054;-81
2022/04/15 21:53:10;;;;;;;5.00;3.35;;;19.10;70.70;;;;;;5138771;27;20035;-81
2022/04/15 21:55:36;;;;;;;10.27;3.47;;;19.00;70.70;;;;;;5135220;27;20027;-81
2022/04/15 21:58:02;;;;;;;4.45;3.00;;;18.90;72.60;;;;;;5138336;27;20498;-82
2022/04/15 22:00:49;;;;;;;3.33;2.60;;;18.80;72.90;;;;;;5140014;27;20031;-81
2022/04/15 22:03:15;;;;;;;2.50;2.13;;;18.70;72.00;;;;;;5140460;27;20024;-81
2022/04/15 22:05:40;;;;;;;3.78;2.60;;;18.70;71.70;;;;;;5140890;27;20351;-81
2022/04/15 22:08:06;;;;;;;3.88;2.17;;;18.70;72.10;;;;;;5153003;27;20501;-81
2022/04/15 22:10:32;;;;;;;4.18;2.80;;;18.60;73.10;;;;;;5139185;27;20563;-81